createdAt,value
2024-05-09T00:00:10.480Z,10.53
2024-05-09T00:01:08.151Z,10.49
2024-05-09T00:02:08.093Z,10.51
2024-05-09T00:03:08.997Z,10.58
2024-05-09T00:04:07.927Z,10.65
2024-05-09T00:05:07.926Z,10.69
2024-05-09T00:06:07.829Z,10.69
2024-05-09T00:07:07.624Z,10.81
2024-05-09T00:08:07.602Z,10.80
2024-05-09T00:09:07.447Z,10.91
2024-05-09T00:10:11.797Z,10.96
2024-05-09T00:29:05.861Z,11.43
2024-05-09T00:30:07.305Z,11.36
2024-05-09T00:32:03.858Z,11.53
2024-05-09T00:33:04.185Z,11.57
2024-05-09T00:34:03.603Z,11.51
2024-05-09T00:35:03.398Z,11.51
2024-05-09T00:36:03.298Z,11.54
2024-05-09T00:37:03.233Z,11.61
2024-05-09T00:38:03.475Z,11.60
2024-05-09T00:39:03.055Z,11.68
2024-05-09T00:40:03.560Z,11.64
2024-05-09T00:41:02.970Z,11.67
2024-05-09T00:42:02.810Z,11.68
2024-05-09T00:43:02.731Z,11.65
2024-05-09T00:44:02.738Z,11.67
2024-05-09T00:45:02.562Z,11.71
2024-05-09T00:46:02.479Z,11.67
2024-05-09T00:47:02.800Z,11.65
2024-05-09T00:49:02.413Z,11.65
2024-05-09T00:52:02.640Z,11.72
2024-05-09T00:55:02.670Z,11.68
2024-05-09T00:57:01.629Z,11.59
2024-05-09T00:59:01.500Z,11.68
2024-05-09T01:00:01.395Z,11.69
2024-05-09T01:01:01.673Z,11.57
2024-05-09T01:02:01.296Z,11.59
2024-05-09T01:03:01.358Z,11.56
2024-05-09T01:04:01.227Z,11.57
2024-05-09T01:07:01.252Z,11.54
2024-05-09T01:08:00.779Z,11.57
2024-05-09T01:09:00.701Z,11.57
2024-05-09T01:10:00.892Z,11.57
2024-05-09T01:12:00.624Z,11.56
2024-05-09T01:13:00.422Z,11.54
2024-05-09T01:14:00.477Z,11.50
2024-05-09T01:18:00.593Z,11.59
2024-05-09T01:41:14.016Z,11.49
2024-05-09T01:42:13.740Z,11.47
2024-05-09T01:43:13.480Z,11.41
2024-05-09T01:44:13.613Z,11.46
2024-05-09T01:45:13.534Z,11.39
2024-05-09T01:46:13.460Z,11.32
2024-05-09T01:47:13.290Z,11.42
2024-05-09T01:48:13.305Z,11.42
2024-05-09T01:49:13.179Z,11.41
2024-05-09T01:50:16.389Z,11.38
2024-05-09T01:52:13.071Z,11.46
2024-05-09T01:53:13.615Z,11.42
2024-05-09T01:54:12.767Z,11.38
2024-05-09T01:55:12.715Z,11.36
2024-05-09T01:57:12.731Z,11.29
2024-05-09T01:59:12.251Z,11.24
2024-05-09T02:00:34.148Z,11.26
2024-05-09T02:01:12.047Z,11.31
2024-05-09T02:02:12.494Z,11.21
2024-05-09T02:03:15.188Z,11.24
2024-05-09T02:06:11.978Z,11.28
2024-05-09T02:07:12.128Z,11.24
2024-05-09T02:08:12.199Z,11.24
2024-05-09T02:09:53.811Z,11.18
2024-05-09T02:10:53.859Z,11.17
2024-05-09T02:11:53.709Z,11.14
2024-05-09T02:12:53.576Z,11.17
2024-05-09T02:13:53.485Z,11.28
2024-05-09T02:14:53.407Z,11.28
2024-05-09T02:15:53.336Z,11.11
2024-05-09T02:16:53.262Z,11.21
2024-05-09T02:17:53.502Z,11.23
2024-05-09T02:18:53.121Z,11.20
2024-05-09T02:19:53.012Z,11.18
2024-05-09T02:20:52.947Z,11.21
2024-05-09T02:21:52.832Z,11.20
2024-05-09T02:22:52.837Z,11.23
2024-05-09T02:23:52.666Z,11.11
2024-05-09T02:24:52.586Z,11.21
2024-05-09T02:25:52.549Z,11.17
2024-05-09T02:26:52.422Z,11.24
2024-05-09T02:27:52.338Z,11.18
2024-05-09T02:28:52.333Z,11.17
2024-05-09T02:29:52.179Z,11.16
2024-05-09T02:30:52.494Z,11.23
2024-05-09T02:31:52.103Z,11.14
2024-05-09T02:32:52.180Z,11.05
2024-05-09T02:33:52.066Z,11.03
2024-05-09T02:34:51.817Z,10.96
2024-05-09T02:35:51.714Z,10.98
2024-05-09T02:36:51.601Z,10.95
2024-05-09T02:37:51.541Z,10.93
2024-05-09T02:38:51.440Z,10.96
2024-05-09T02:39:51.354Z,10.88
2024-05-09T02:40:51.318Z,10.84
2024-05-09T02:41:51.199Z,10.85
2024-05-09T02:42:51.110Z,10.81
2024-05-09T02:43:51.087Z,10.74
2024-05-09T02:44:50.966Z,10.69
2024-05-09T02:46:38.376Z,10.47
2024-05-09T02:47:38.774Z,10.40
2024-05-09T02:48:39.028Z,10.36
2024-05-09T02:49:38.205Z,10.25
2024-05-09T02:50:39.883Z,10.18
2024-05-09T02:51:38.233Z,10.18
2024-05-09T02:52:38.282Z,10.13
2024-05-09T02:53:37.824Z,10.08
2024-05-09T02:54:37.720Z,9.97
2024-05-09T02:56:37.586Z,9.92
2024-05-09T02:58:37.356Z,9.71
2024-05-09T02:59:37.337Z,9.75
2024-05-09T03:00:40.602Z,9.75
2024-05-09T03:01:37.287Z,9.79
2024-05-09T03:02:37.122Z,9.71
2024-05-09T03:03:37.538Z,9.68
2024-05-09T03:04:36.961Z,9.70
2024-05-09T03:05:37.199Z,9.74
2024-05-09T03:06:36.899Z,9.63
2024-05-09T03:07:39.703Z,9.67
2024-05-09T03:08:36.558Z,9.70
2024-05-09T03:09:36.441Z,9.60
2024-05-09T03:10:38.407Z,9.65
2024-05-09T03:11:36.367Z,9.63
2024-05-09T03:12:39.056Z,9.55
2024-05-09T03:13:36.116Z,9.61
2024-05-09T03:14:36.067Z,9.58
2024-05-09T03:15:36.280Z,9.61
2024-05-09T03:16:36.087Z,9.46
2024-05-09T03:17:36.057Z,9.46
2024-05-09T03:18:35.817Z,9.43
2024-05-09T03:19:35.651Z,9.60
2024-05-09T03:20:36.744Z,9.43
2024-05-09T03:21:35.879Z,9.43
2024-05-09T03:22:35.559Z,9.38
2024-05-09T03:23:35.317Z,9.31
2024-05-09T03:24:35.442Z,9.35
2024-05-09T03:25:35.120Z,9.34
2024-05-09T03:26:35.048Z,9.31
2024-05-09T03:28:35.102Z,9.25
2024-05-09T03:29:35.803Z,9.28
2024-05-09T03:30:39.800Z,9.24
2024-05-09T03:31:35.061Z,9.19
2024-05-09T03:33:35.212Z,9.14
2024-05-09T03:34:34.399Z,9.16
2024-05-09T03:35:35.792Z,9.03
2024-05-09T03:36:34.233Z,9.05
2024-05-09T03:38:34.315Z,9.06
2024-05-09T03:39:35.195Z,9.10
2024-05-09T03:41:34.046Z,8.84
2024-05-09T03:47:33.408Z,8.79
2024-05-09T03:48:33.274Z,8.77
2024-05-09T03:49:33.211Z,8.70
2024-05-09T03:50:35.628Z,8.76
2024-05-09T03:51:32.964Z,8.82
2024-05-09T03:52:32.851Z,8.79
2024-05-09T03:53:32.898Z,8.69
2024-05-09T03:54:32.685Z,8.66
2024-05-09T03:55:34.016Z,8.77
2024-05-09T03:56:32.602Z,8.65
2024-05-09T03:57:32.440Z,8.68
2024-05-09T03:58:32.500Z,8.73
2024-05-09T03:59:32.484Z,8.66
2024-05-09T04:00:37.930Z,8.69
2024-05-09T04:01:32.287Z,8.75
2024-05-09T04:02:32.162Z,8.75
2024-05-09T04:03:32.029Z,8.73
2024-05-09T04:04:32.022Z,8.62
2024-05-09T04:05:31.906Z,8.76
2024-05-09T04:06:31.728Z,8.68
2024-05-09T04:08:44.230Z,8.77
2024-05-09T04:09:44.061Z,8.68
2024-05-09T04:10:44.147Z,8.69
2024-05-09T04:11:43.982Z,8.70
2024-05-09T04:12:43.826Z,8.77
2024-05-09T04:13:43.850Z,8.66
2024-05-09T04:14:43.630Z,8.68
2024-05-09T04:15:43.547Z,8.65
2024-05-09T04:16:44.091Z,8.66
2024-05-09T04:17:43.558Z,8.70
2024-05-09T04:18:43.418Z,8.62
2024-05-09T04:19:43.516Z,8.57
2024-05-09T04:20:43.181Z,8.55
2024-05-09T04:22:25.520Z,8.68
2024-05-09T04:23:25.464Z,8.70
2024-05-09T04:24:26.163Z,8.62
2024-05-09T04:25:25.267Z,8.69
2024-05-09T04:26:25.264Z,8.69
2024-05-09T04:27:25.106Z,8.68
2024-05-09T04:28:25.012Z,8.70
2024-05-09T04:29:25.045Z,8.70
2024-05-09T04:30:34.474Z,8.69
2024-05-09T04:31:24.773Z,8.65
2024-05-09T04:32:24.814Z,8.69
2024-05-09T04:33:24.987Z,8.66
2024-05-09T04:34:24.629Z,8.77
2024-05-09T04:35:24.658Z,8.76
2024-05-09T04:36:24.351Z,8.68
2024-05-09T04:37:24.626Z,8.87
2024-05-09T04:38:24.699Z,8.82
2024-05-09T04:39:24.096Z,8.79
2024-05-09T04:40:31.411Z,8.87
2024-05-09T04:41:23.979Z,8.82
2024-05-09T04:42:23.842Z,8.80
2024-05-09T04:43:23.755Z,8.91
2024-05-09T04:44:23.726Z,8.85
2024-05-09T04:45:23.588Z,8.93
2024-05-09T04:46:23.501Z,8.94
2024-05-09T04:47:23.584Z,8.85
2024-05-09T04:48:23.462Z,8.87
2024-05-09T04:49:23.382Z,8.90
2024-05-09T04:50:30.310Z,8.90
2024-05-09T04:51:23.085Z,8.94
2024-05-09T04:52:23.013Z,8.97
2024-05-09T04:53:22.995Z,8.90
2024-05-09T04:54:33.502Z,8.97
2024-05-09T04:55:22.750Z,9.03
2024-05-09T04:56:22.758Z,8.97
2024-05-09T04:57:22.578Z,9.00
2024-05-09T04:58:22.491Z,9.03
2024-05-09T04:59:22.482Z,8.93
2024-05-09T05:00:31.826Z,9.02
2024-05-09T05:01:22.418Z,9.02
2024-05-09T05:02:22.243Z,9.03
2024-05-09T05:03:22.360Z,9.17
2024-05-09T05:05:21.920Z,9.20
2024-05-09T05:06:21.827Z,9.35
2024-05-09T05:07:21.833Z,9.34
2024-05-09T05:08:22.457Z,9.40
2024-05-09T05:09:22.725Z,9.45
2024-05-09T05:10:29.474Z,9.35
2024-05-09T05:11:21.506Z,9.40
2024-05-09T05:12:21.446Z,9.49
2024-05-09T05:13:22.575Z,9.40
2024-05-09T05:14:21.233Z,9.58
2024-05-09T05:16:21.035Z,9.55
2024-05-09T05:17:21.066Z,9.71
2024-05-09T05:19:33.622Z,9.72
2024-05-09T05:21:20.985Z,9.79
2024-05-09T05:22:20.529Z,9.82
2024-05-09T05:23:20.667Z,9.92
2024-05-09T05:24:21.013Z,9.90
2024-05-09T05:25:20.240Z,10.01
2024-05-09T05:26:20.318Z,10.06
2024-05-09T05:27:20.117Z,10.04
2024-05-09T05:28:20.031Z,10.10
2024-05-09T05:29:20.889Z,10.11
2024-05-09T05:30:25.217Z,10.10
2024-05-09T05:31:19.821Z,10.25
2024-05-09T05:32:19.947Z,10.16
2024-05-09T05:33:20.307Z,10.28
2024-05-09T05:49:19.282Z,10.93
2024-05-09T05:59:17.950Z,11.50
2024-05-09T06:00:28.520Z,11.59
2024-05-09T06:23:30.269Z,12.59
2024-05-09T06:24:30.486Z,12.74
2024-05-09T06:25:30.031Z,12.70
2024-05-09T06:27:29.850Z,12.84
2024-05-09T06:28:29.764Z,12.81
2024-05-09T06:29:30.580Z,12.88
2024-05-09T06:30:37.086Z,13.02
2024-05-09T06:31:29.526Z,13.00
2024-05-09T06:32:29.553Z,13.09
2024-05-09T06:33:29.722Z,13.09
2024-05-09T06:34:29.869Z,13.07
2024-05-09T06:35:29.568Z,13.18
2024-05-09T06:36:29.540Z,13.18
2024-05-09T06:37:29.352Z,13.27
2024-05-09T06:38:29.063Z,13.37
2024-05-09T06:39:28.893Z,13.50
2024-05-09T06:40:36.444Z,13.55
2024-05-09T06:41:28.892Z,13.63
2024-05-09T06:42:28.641Z,13.71
2024-05-09T06:43:29.166Z,13.73
2024-05-09T06:44:28.610Z,13.86
2024-05-09T06:45:28.476Z,13.81
2024-05-09T06:46:28.630Z,13.86
2024-05-09T06:47:28.489Z,13.84
2024-05-09T06:48:28.236Z,14.01
2024-05-09T06:49:28.189Z,14.05
2024-05-09T06:50:31.471Z,14.20
2024-05-09T06:51:27.897Z,14.24
2024-05-09T06:52:27.820Z,14.31
2024-05-09T06:53:27.788Z,14.24
2024-05-09T06:54:27.653Z,14.29
2024-05-09T06:55:27.585Z,14.39
2024-05-09T06:56:27.536Z,14.34
2024-05-09T06:57:27.449Z,14.50
2024-05-09T06:58:27.343Z,14.57
2024-05-09T06:59:28.031Z,14.59
2024-05-09T07:00:35.343Z,14.57
2024-05-09T07:01:27.154Z,14.80
2024-05-09T07:02:27.164Z,14.69
2024-05-09T07:03:27.136Z,14.87
2024-05-09T07:04:26.989Z,14.95
2024-05-09T07:05:26.978Z,14.98
2024-05-09T07:06:26.705Z,14.97
2024-05-09T07:07:26.641Z,15.13
2024-05-09T07:08:26.571Z,15.24
2024-05-09T07:09:26.468Z,15.38
2024-05-09T07:11:26.573Z,15.41
2024-05-09T07:12:26.657Z,15.46
2024-05-09T07:13:26.149Z,15.67
2024-05-09T07:14:26.396Z,15.60
2024-05-09T07:15:26.050Z,15.52
2024-05-09T07:16:26.153Z,15.46
2024-05-09T07:17:26.102Z,15.41
2024-05-09T07:18:25.909Z,15.43
2024-05-09T07:19:25.831Z,15.57
2024-05-09T07:20:33.786Z,15.67
2024-05-09T07:21:26.157Z,15.68
2024-05-09T07:22:25.437Z,15.64
2024-05-09T07:23:25.422Z,15.71
2024-05-09T07:24:25.283Z,15.68
2024-05-09T07:25:25.204Z,15.86
2024-05-09T07:26:25.195Z,15.89
2024-05-09T07:27:25.053Z,15.97
2024-05-09T07:28:24.967Z,16.07
2024-05-09T07:29:24.926Z,16.12
2024-05-09T07:30:44.028Z,16.33
2024-05-09T07:31:24.740Z,16.33
2024-05-09T07:32:25.345Z,16.33
2024-05-09T07:33:26.244Z,16.40
2024-05-09T07:34:30.984Z,16.60
2024-05-09T07:35:37.775Z,16.67
2024-05-09T07:36:24.347Z,16.67
2024-05-09T07:37:24.568Z,16.60
2024-05-09T07:38:37.233Z,16.60
2024-05-09T07:39:24.204Z,16.73
2024-05-09T07:40:37.206Z,16.63
2024-05-09T07:41:23.997Z,16.78
2024-05-09T07:42:23.868Z,16.78
2024-05-09T07:43:30.054Z,16.89
2024-05-09T07:44:23.787Z,16.98
2024-05-09T07:45:40.575Z,16.93
2024-05-09T07:48:49.056Z,17.08
2024-05-09T07:53:30.316Z,17.17
2024-05-09T07:53:39.572Z,17.18
2024-05-09T07:54:23.148Z,17.33
2024-05-09T07:55:23.084Z,17.23
2024-05-09T07:59:22.580Z,17.39
2024-05-09T08:01:23.089Z,17.30
2024-05-09T08:02:22.934Z,17.36
2024-05-09T08:04:25.083Z,17.64
2024-05-09T08:05:22.190Z,17.67
2024-05-09T08:06:22.340Z,17.67
2024-05-09T08:07:22.410Z,17.71
2024-05-09T08:09:21.898Z,17.67
2024-05-09T08:12:21.571Z,17.54
2024-05-09T08:13:21.840Z,17.43
2024-05-09T08:14:21.615Z,17.46
2024-05-09T08:16:21.849Z,17.51
2024-05-09T08:17:21.407Z,17.54
2024-05-09T08:18:21.413Z,17.63
2024-05-09T08:19:21.104Z,17.64
2024-05-09T08:20:30.137Z,17.71
2024-05-09T08:21:20.863Z,17.58
2024-05-09T08:23:20.710Z,17.63
2024-05-09T08:24:20.848Z,17.57
2024-05-09T08:25:20.785Z,17.58
2024-05-09T08:26:20.438Z,17.67
2024-05-09T08:27:20.387Z,17.69
2024-05-09T08:28:20.344Z,17.66
2024-05-09T08:29:20.422Z,17.67
2024-05-09T08:30:25.393Z,17.71
2024-05-09T08:31:20.153Z,17.74
2024-05-09T08:32:20.017Z,17.95
2024-05-09T08:33:20.313Z,18.11
2024-05-09T08:35:19.829Z,18.39
2024-05-09T08:37:23.204Z,18.44
2024-05-09T08:38:19.509Z,18.52
2024-05-09T08:39:19.674Z,18.57
2024-05-09T08:41:19.522Z,18.53
2024-05-09T08:44:19.080Z,18.22
2024-05-09T08:46:19.253Z,18.43
2024-05-09T08:48:19.798Z,18.58
2024-05-09T08:49:18.869Z,18.68
2024-05-09T08:52:02.489Z,18.69
2024-05-09T08:53:02.408Z,18.80
2024-05-09T08:54:02.315Z,18.80
2024-05-09T08:55:02.376Z,18.92
2024-05-09T08:56:02.173Z,18.92
2024-05-09T08:57:54.605Z,19.14
2024-05-09T08:58:54.497Z,18.99
2024-05-09T08:59:54.430Z,18.87
2024-05-09T09:00:54.423Z,18.76
2024-05-09T09:01:54.338Z,18.76
2024-05-09T09:02:54.264Z,18.90
2024-05-09T09:03:54.297Z,18.71
2024-05-09T09:04:54.152Z,18.77
2024-05-09T09:05:54.030Z,18.79
2024-05-09T09:06:57.125Z,18.74
2024-05-09T09:07:53.826Z,18.79
2024-05-09T09:08:53.733Z,18.73
2024-05-09T09:09:53.711Z,18.74
2024-05-09T09:10:53.676Z,18.73
2024-05-09T09:11:53.609Z,18.61
2024-05-09T09:12:53.477Z,18.61
2024-05-09T09:13:53.343Z,18.59
2024-05-09T09:14:53.275Z,18.47
2024-05-09T09:15:53.219Z,18.40
2024-05-09T09:16:53.117Z,18.39
2024-05-09T09:17:53.175Z,18.57
2024-05-09T09:18:53.329Z,18.62
2024-05-09T09:19:52.964Z,18.84
2024-05-09T09:20:52.813Z,18.90
2024-05-09T09:21:52.786Z,18.95
2024-05-09T09:23:52.856Z,18.86
2024-05-09T09:24:52.593Z,18.95
2024-05-09T09:25:52.580Z,18.95
2024-05-09T09:26:52.354Z,18.97
2024-05-09T09:27:52.305Z,18.97
2024-05-09T09:28:56.286Z,18.99
2024-05-09T09:29:52.131Z,19.08
2024-05-09T09:30:52.162Z,19.09
2024-05-09T09:31:51.982Z,19.11
2024-05-09T09:32:52.035Z,19.20
2024-05-09T09:33:52.132Z,19.21
2024-05-09T09:34:51.881Z,19.11
2024-05-09T09:37:09.489Z,19.32
2024-05-09T09:38:09.098Z,19.46
2024-05-09T09:39:09.018Z,19.42
2024-05-09T09:40:10.752Z,19.25
2024-05-09T09:41:08.931Z,19.14
2024-05-09T09:42:08.787Z,19.11
2024-05-09T09:43:08.884Z,19.05
2024-05-09T09:44:08.638Z,18.94
2024-05-09T09:45:08.560Z,18.94
2024-05-09T09:46:11.697Z,18.97
2024-05-09T09:47:08.649Z,19.08
2024-05-09T09:48:09.030Z,19.21
2024-05-09T09:49:08.578Z,19.24
2024-05-09T09:50:14.220Z,19.24
2024-05-09T09:51:08.160Z,19.27
2024-05-09T09:52:10.995Z,19.32
2024-05-09T09:53:07.954Z,19.45
2024-05-09T09:55:08.585Z,19.64
2024-05-09T09:59:13.403Z,19.94
2024-05-09T10:00:17.417Z,19.91
2024-05-09T10:01:13.372Z,19.73
2024-05-09T10:02:13.358Z,19.86
2024-05-09T10:03:13.258Z,19.88
2024-05-09T10:04:13.532Z,19.79
2024-05-09T10:05:13.026Z,19.73
2024-05-09T10:06:12.919Z,19.55
2024-05-09T10:07:12.845Z,19.63
2024-05-09T10:08:12.736Z,19.50
2024-05-09T10:09:12.641Z,19.32
2024-05-09T10:10:16.249Z,19.35
2024-05-09T10:11:12.530Z,19.33
2024-05-09T10:12:12.668Z,19.48
2024-05-09T10:13:12.362Z,19.50
2024-05-09T10:14:12.269Z,19.57
2024-05-09T10:15:12.189Z,19.71
2024-05-09T10:16:12.469Z,19.75
2024-05-09T10:17:12.217Z,19.79
2024-05-09T10:18:12.129Z,19.75
2024-05-09T10:19:11.947Z,19.87
2024-05-09T10:20:18.262Z,19.90
2024-05-09T10:21:11.740Z,19.88
2024-05-09T10:22:11.750Z,19.88
2024-05-09T10:23:11.590Z,19.73
2024-05-09T10:24:11.514Z,19.76
2024-05-09T10:25:11.499Z,19.58
2024-05-09T10:26:11.372Z,19.48
2024-05-09T10:27:11.298Z,19.42
2024-05-09T10:28:11.387Z,19.42
2024-05-09T10:29:11.598Z,19.55
2024-05-09T10:30:17.715Z,19.54
2024-05-09T10:31:11.542Z,19.48
2024-05-09T10:32:11.130Z,19.24
2024-05-09T10:33:11.063Z,19.15
2024-05-09T10:34:10.954Z,19.09
2024-05-09T10:35:10.912Z,19.23
2024-05-09T10:36:10.617Z,19.39
2024-05-09T10:37:10.587Z,19.51
2024-05-09T10:38:10.461Z,19.63
2024-05-09T10:39:10.387Z,19.69
2024-05-09T10:40:17.239Z,19.73
2024-05-09T10:41:10.245Z,19.71
2024-05-09T10:42:10.157Z,19.73
2024-05-09T10:43:10.123Z,19.76
2024-05-09T10:44:10.313Z,19.93
2024-05-09T10:45:09.934Z,19.91
2024-05-09T10:46:10.174Z,19.82
2024-05-09T10:47:09.805Z,19.72
2024-05-09T10:48:09.796Z,19.58
2024-05-09T10:49:09.776Z,19.51
2024-05-09T10:50:18.348Z,19.53
2024-05-09T10:51:09.478Z,19.42
2024-05-09T10:52:09.495Z,19.35
2024-05-09T10:53:09.329Z,19.32
2024-05-09T10:54:09.265Z,19.40
2024-05-09T10:55:09.233Z,19.32
2024-05-09T10:56:09.215Z,19.53
2024-05-09T10:57:09.443Z,19.65
2024-05-09T10:58:09.048Z,19.72
2024-05-09T10:59:09.129Z,19.54
2024-05-09T11:00:18.969Z,19.63
2024-05-09T11:01:08.941Z,19.71
2024-05-09T11:02:08.878Z,19.73
2024-05-09T11:03:08.652Z,19.91
2024-05-09T11:04:11.205Z,20.08
2024-05-09T11:05:08.503Z,20.06
2024-05-09T11:06:08.382Z,20.15
2024-05-09T11:07:08.738Z,20.09
2024-05-09T11:08:08.232Z,20.38
2024-05-09T11:09:08.174Z,20.54
2024-05-09T11:10:12.484Z,20.51
2024-05-09T11:11:08.919Z,20.54
2024-05-09T11:12:08.100Z,20.69
2024-05-09T11:13:07.948Z,20.74
2024-05-09T11:14:07.780Z,20.65
2024-05-09T11:15:07.863Z,20.83
2024-05-09T11:16:07.855Z,20.96
2024-05-09T11:24:42.958Z,20.76
2024-05-09T11:25:42.644Z,20.76
2024-05-09T11:26:42.633Z,20.96
2024-05-09T11:27:42.536Z,21.02
2024-05-09T11:28:42.417Z,20.91
2024-05-09T11:29:42.346Z,20.98
2024-05-09T11:30:42.375Z,21.14
2024-05-09T11:31:42.379Z,21.29
2024-05-09T11:32:42.210Z,21.20
2024-05-09T11:33:42.314Z,21.24
2024-05-09T11:34:42.305Z,21.19
2024-05-09T11:35:42.107Z,21.29
2024-05-09T11:36:41.857Z,21.35
2024-05-09T11:37:41.750Z,21.39
2024-05-09T11:39:41.703Z,21.61
2024-05-09T11:40:41.783Z,21.66
2024-05-09T11:41:41.478Z,21.69
2024-05-09T11:42:41.476Z,21.85
2024-05-09T11:44:41.233Z,22.39
2024-05-09T11:45:41.329Z,22.75
2024-05-09T11:46:41.138Z,23.08
2024-05-09T11:47:41.726Z,23.68
2024-05-09T11:49:33.575Z,24.50
2024-05-09T11:51:56.081Z,24.42
2024-05-09T11:52:56.774Z,24.23
2024-05-09T11:54:55.803Z,24.30
2024-05-09T11:55:56.011Z,24.02
2024-05-09T11:56:55.629Z,24.05
2024-05-09T11:58:55.503Z,24.25
2024-05-09T12:02:45.358Z,25.16
2024-05-09T12:05:45.538Z,24.63
2024-05-09T12:06:45.219Z,24.59
2024-05-09T12:08:45.250Z,24.50
2024-05-09T12:12:44.900Z,25.34
2024-05-09T12:13:44.640Z,25.56
2024-05-09T12:14:44.563Z,26.05
2024-05-09T12:15:44.634Z,25.75
2024-05-09T12:16:44.541Z,25.56
2024-05-09T12:17:46.172Z,25.55
2024-05-09T12:18:44.435Z,25.67
2024-05-09T12:19:44.303Z,25.53
2024-05-09T12:20:44.186Z,25.70
2024-05-09T12:21:44.191Z,25.57
2024-05-09T12:22:44.052Z,25.64
2024-05-09T12:23:44.195Z,25.64
2024-05-09T12:24:43.979Z,25.46
2024-05-09T12:25:43.875Z,25.41
2024-05-09T12:26:43.813Z,25.93
2024-05-09T12:27:44.620Z,25.97
2024-05-09T12:28:43.695Z,26.02
2024-05-09T12:29:44.056Z,26.21
2024-05-09T12:31:41.363Z,25.56
2024-05-09T12:32:41.391Z,26.09
2024-05-09T12:33:41.364Z,25.89
2024-05-09T12:34:41.823Z,26.08
2024-05-09T12:35:44.101Z,26.09
2024-05-09T12:36:41.077Z,26.28
2024-05-09T12:37:41.275Z,26.40
2024-05-09T12:38:40.911Z,27.12
2024-05-09T12:39:40.892Z,27.64
2024-05-09T12:40:41.147Z,27.94
2024-05-09T12:41:40.736Z,28.04
2024-05-09T12:42:43.360Z,27.89
2024-05-09T12:43:40.629Z,28.01
2024-05-09T12:44:40.556Z,27.32
2024-05-09T12:45:40.834Z,27.34
2024-05-09T12:46:40.422Z,27.27
2024-05-09T12:48:43.126Z,27.80
2024-05-09T12:49:44.373Z,27.67
2024-05-09T12:50:43.084Z,27.35
2024-05-09T12:51:42.876Z,27.38
2024-05-09T12:52:42.777Z,27.09
2024-05-09T12:53:42.724Z,26.61
2024-05-09T12:54:42.725Z,26.75
2024-05-09T12:55:48.848Z,27.13
2024-05-09T12:56:42.537Z,27.64
2024-05-09T12:57:42.578Z,27.49
2024-05-09T12:58:42.410Z,27.34
2024-05-09T12:59:42.377Z,27.60
2024-05-09T13:00:42.478Z,28.07
2024-05-09T13:01:42.322Z,28.11
2024-05-09T13:02:42.268Z,28.10
2024-05-09T13:03:42.373Z,28.09
2024-05-09T13:04:42.204Z,28.61
2024-05-09T13:05:42.295Z,28.76
2024-05-09T13:06:41.957Z,28.69
2024-05-09T13:07:42.015Z,28.50
2024-05-09T13:08:41.806Z,28.80
2024-05-09T13:09:41.793Z,28.68
2024-05-09T13:10:41.937Z,28.09
2024-05-09T13:11:41.662Z,27.88
2024-05-09T13:12:42.399Z,28.31
2024-05-09T13:13:41.554Z,28.59
2024-05-09T13:14:41.511Z,28.63
2024-05-09T13:15:41.426Z,28.32
2024-05-09T13:17:29.321Z,27.69
2024-05-09T13:18:29.493Z,27.64
2024-05-09T13:19:29.087Z,27.60
2024-05-09T13:20:33.065Z,27.95
2024-05-09T13:21:29.177Z,28.06
2024-05-09T13:22:28.834Z,27.49
2024-05-09T13:23:28.745Z,26.89
2024-05-09T13:24:28.735Z,27.42
2024-05-09T13:25:28.618Z,28.10
2024-05-09T13:26:28.576Z,28.62
2024-05-09T13:27:28.550Z,28.94
2024-05-09T13:28:28.483Z,29.14
2024-05-09T13:29:28.375Z,28.91
2024-05-09T13:30:35.781Z,29.09
2024-05-09T13:31:28.416Z,29.25
2024-05-09T13:32:29.693Z,29.19
2024-05-09T13:33:28.230Z,28.56
2024-05-09T13:34:28.092Z,28.69
2024-05-09T13:35:28.029Z,29.31
2024-05-09T13:36:28.101Z,29.48
2024-05-09T13:37:27.939Z,29.69
2024-05-09T13:38:27.837Z,29.66
2024-05-09T13:39:27.794Z,29.87
2024-05-09T13:40:33.369Z,29.78
2024-05-09T13:41:27.668Z,29.16
2024-05-09T13:42:27.607Z,28.09
2024-05-09T13:43:27.602Z,27.79
2024-05-09T13:44:27.537Z,28.13
2024-05-09T13:45:27.427Z,28.04
2024-05-09T13:46:27.404Z,27.98
2024-05-09T13:47:27.366Z,27.77
2024-05-09T13:48:27.267Z,27.80
2024-05-09T13:49:27.211Z,27.94
2024-05-09T13:50:32.904Z,28.04
2024-05-09T13:51:27.073Z,27.98
2024-05-09T13:52:27.059Z,27.79
2024-05-09T13:53:26.952Z,27.62
2024-05-09T13:54:26.895Z,26.94
2024-05-09T13:55:26.833Z,26.11
2024-05-09T13:56:26.771Z,26.18
2024-05-09T13:57:26.716Z,26.46
2024-05-09T13:58:26.677Z,26.31
2024-05-09T13:59:29.210Z,26.83
2024-05-09T14:00:37.944Z,27.31
2024-05-09T14:01:26.604Z,27.92
2024-05-09T14:02:26.562Z,28.06
2024-05-09T14:03:26.463Z,28.39
2024-05-09T14:04:27.032Z,28.32
2024-05-09T14:05:26.373Z,27.65
2024-05-09T14:07:26.134Z,25.89
2024-05-09T14:08:26.050Z,25.84
2024-05-09T14:09:25.986Z,25.67
2024-05-09T14:10:30.762Z,25.32
2024-05-09T14:11:25.909Z,24.93
2024-05-09T14:12:25.787Z,24.57
2024-05-09T14:13:25.861Z,24.59
2024-05-09T14:14:25.670Z,25.12
2024-05-09T14:15:25.628Z,25.70
2024-05-09T14:16:25.621Z,25.27
2024-05-09T14:17:25.580Z,24.94
2024-05-09T14:18:25.462Z,25.08
2024-05-09T14:20:31.087Z,25.17
2024-05-09T14:21:25.202Z,24.66
2024-05-09T14:24:07.564Z,24.02
2024-05-09T14:25:07.546Z,23.90
2024-05-09T14:26:49.927Z,23.72
2024-05-09T14:27:49.921Z,24.04
2024-05-09T14:29:49.724Z,25.49
2024-05-09T14:30:49.922Z,25.45
2024-05-09T14:31:49.725Z,25.47
2024-05-09T14:32:49.672Z,26.18
2024-05-09T14:33:49.648Z,26.71
2024-05-09T14:34:49.544Z,27.29
2024-05-09T14:35:49.351Z,27.27
2024-05-09T14:36:49.285Z,27.65
2024-05-09T14:37:49.199Z,27.77
2024-05-09T14:38:49.169Z,28.01
2024-05-09T14:39:49.108Z,27.24
2024-05-09T14:40:49.198Z,27.08
2024-05-09T14:41:48.939Z,26.97
2024-05-09T14:42:48.970Z,26.60
2024-05-09T14:43:48.808Z,25.86
2024-05-09T14:44:48.753Z,26.12
2024-05-09T14:45:48.736Z,26.35
2024-05-09T14:46:48.659Z,26.75
2024-05-09T14:47:48.693Z,27.01
2024-05-09T14:48:48.800Z,27.32
2024-05-09T14:49:48.481Z,27.50
2024-05-09T14:50:48.364Z,26.94
2024-05-09T14:51:48.602Z,26.80
2024-05-09T14:52:48.234Z,27.21
2024-05-09T14:53:48.181Z,27.36
2024-05-09T14:54:51.367Z,27.31
2024-05-09T14:55:48.500Z,27.45
2024-05-09T14:56:47.979Z,27.21
2024-05-09T14:57:47.999Z,26.98
2024-05-09T14:58:48.048Z,26.84
2024-05-09T14:59:47.991Z,25.97
2024-05-09T15:00:50.877Z,24.91
2024-05-09T15:01:47.747Z,24.90
2024-05-09T15:02:48.080Z,25.60
2024-05-09T15:03:47.615Z,26.46
2024-05-09T15:04:47.698Z,27.07
2024-05-09T15:05:47.544Z,27.38
2024-05-09T15:06:47.376Z,27.38
2024-05-09T15:07:47.291Z,27.29
2024-05-09T15:08:47.263Z,27.35
2024-05-09T15:09:47.197Z,26.71
2024-05-09T15:10:47.530Z,26.53
2024-05-09T15:11:47.103Z,26.95
2024-05-09T15:12:46.976Z,27.09
2024-05-09T15:13:46.884Z,26.67
2024-05-09T15:14:46.819Z,26.09
2024-05-09T15:15:46.915Z,25.50
2024-05-09T15:16:46.690Z,24.85
2024-05-09T15:17:46.704Z,24.60
2024-05-09T15:18:46.688Z,24.01
2024-05-09T15:19:46.714Z,23.85
2024-05-09T15:20:46.599Z,23.67
2024-05-09T15:21:46.379Z,23.82
2024-05-09T15:22:46.295Z,24.44
2024-05-09T15:23:46.236Z,25.19
2024-05-09T15:24:46.255Z,25.72
2024-05-09T15:25:46.097Z,26.31
2024-05-09T15:26:46.026Z,27.13
2024-05-09T15:27:45.964Z,27.36
2024-05-09T15:28:45.891Z,27.19
2024-05-09T15:29:45.838Z,26.80
2024-05-09T15:30:58.538Z,27.36
2024-05-09T15:31:45.754Z,27.91
2024-05-09T15:32:45.768Z,28.04
2024-05-09T15:33:45.701Z,28.24
2024-05-09T15:34:46.025Z,28.09
2024-05-09T15:35:45.436Z,28.11
2024-05-09T15:36:45.402Z,28.43
2024-05-09T15:37:45.304Z,28.72
2024-05-09T15:38:45.264Z,28.46
2024-05-09T15:39:45.217Z,28.01
2024-05-09T15:40:45.221Z,27.42
2024-05-09T15:41:45.050Z,27.98
2024-05-09T15:43:45.116Z,28.78
2024-05-09T15:44:44.855Z,28.80
2024-05-09T15:45:44.827Z,28.50
2024-05-09T15:46:44.927Z,27.87
2024-05-09T15:47:44.745Z,27.88
2024-05-09T15:48:45.009Z,27.49
2024-05-09T15:49:44.726Z,27.54
2024-05-09T15:50:44.929Z,26.99
2024-05-09T15:51:44.429Z,26.90
2024-05-09T15:52:44.341Z,26.86
2024-05-09T15:53:44.284Z,27.12
2024-05-09T15:54:44.235Z,26.67
2024-05-09T15:55:44.158Z,26.45
2024-05-09T15:56:44.087Z,25.94
2024-05-09T15:57:44.295Z,26.23
2024-05-09T15:58:43.960Z,26.69
2024-05-09T15:59:43.886Z,26.80
2024-05-09T16:00:45.495Z,27.13
2024-05-09T16:01:43.828Z,27.39
2024-05-09T16:02:43.902Z,27.31
2024-05-09T16:03:44.124Z,27.88
2024-05-09T16:04:43.644Z,27.64